Time;durP1;ratioP1;P1;durP2;ratioP2;P2;SDS_P1;SDS_P2;PMS_P1;PMS_P2;Temp;Humidity;BMP_temperature;BMP_pressure;BME280_temperature;BME280_humidity;BME280_pressure;Samples;Min_cycle;Max_cycle;Signal;HPM_P1;HPM_P2
2023/09/10 00:00:45;;;;;;;8.50;4.20;;;;;;;10.28;74.47;99638.43;105588;1258;61234;-23
2023/09/10 00:03:13;;;;;;;9.30;4.70;;;;;;;10.31;73.42;99638.77;105678;1254;61243;-23
2023/09/10 00:05:41;;;;;;;7.30;4.10;;;;;;;10.12;73.26;99636.45;105692;1254;73900;-23
2023/09/10 00:08:09;;;;;;;7.40;3.60;;;;;;;9.86;73.40;99634.59;105705;1258;74549;-25
2023/09/10 00:10:38;;;;;;;7.10;3.90;;;;;;;9.59;73.99;99639.17;105436;1254;72870;-23
2023/09/10 00:13:06;;;;;;;8.80;4.10;;;;;;;9.34;74.96;99640.02;105748;1254;61132;-24
2023/09/10 00:15:34;;;;;;;6.80;3.70;;;;;;;9.11;75.07;99644.59;105664;1254;61127;-23
2023/09/10 00:18:02;;;;;;;5.10;2.50;;;;;;;8.95;75.69;99645.48;105682;1254;73924;-31
2023/09/10 00:20:30;;;;;;;5.30;2.60;;;;;;;9.38;76.27;99645.76;105649;1260;74450;-24
2023/09/10 00:22:58;;;;;;;9.80;3.10;;;;;;;9.92;75.31;99643.55;105661;1257;72721;-24
2023/09/10 00:25:26;;;;;;;5.70;3.30;;;;;;;9.94;74.50;99639.24;105670;1255;61167;-24
2023/09/10 00:27:54;;;;;;;7.30;3.30;;;;;;;9.76;74.51;99641.15;105500;1253;61148;-24
2023/09/10 00:30:21;;;;;;;6.20;3.30;;;;;;;9.51;75.29;99643.40;105490;1259;73869;-23
2023/09/10 00:32:49;;;;;;;6.90;3.80;;;;;;;9.21;75.96;99639.15;105430;1254;74390;-22
2023/09/10 00:35:17;;;;;;;6.20;3.50;;;;;;;8.93;77.02;99641.80;105600;1254;72700;-23
2023/09/10 00:37:48;;;;;;;4.20;2.20;;;;;;;8.74;77.41;99645.27;105630;1259;61142;-23
2023/09/10 00:40:16;;;;;;;4.40;2.30;;;;;;;9.11;77.93;99642.06;105580;1253;61066;-23
2023/09/10 00:42:44;;;;;;;5.20;3.20;;;;;;;9.61;76.49;99638.92;105533;1254;72917;-23
2023/09/10 00:45:12;;;;;;;5.00;3.00;;;;;;;9.66;75.30;99639.41;105617;1259;74470;-23
2023/09/10 00:47:44;;;;;;;4.70;3.10;;;;;;;9.49;74.66;99635.71;105654;1254;72780;-23
2023/09/10 00:50:17;;;;;;;6.30;3.50;;;;;;;9.21;74.80;99638.27;105317;1262;61231;-23
2023/09/10 00:52:46;;;;;;;6.50;3.20;;;;;;;8.93;75.15;99641.95;105189;1254;60988;-23
2023/09/10 00:55:14;;;;;;;4.80;3.20;;;;;;;8.68;76.11;99642.87;105522;1254;73016;-23
2023/09/10 00:57:43;;;;;;;5.30;2.80;;;;;;;8.47;76.54;99642.11;105710;1254;73219;-23
2023/09/10 01:00:12;;;;;;;3.30;1.80;;;;;;;8.29;77.14;99644.94;105526;1262;72689;-22
2023/09/10 01:02:43;;;;;;;3.70;2.20;;;;;;;8.71;77.41;99642.34;105627;1259;61212;-23
2023/09/10 01:05:11;;;;;;;9.10;3.50;;;;;;;9.25;76.21;99636.78;105308;1255;61100;-23
2023/09/10 01:07:39;;;;;;;5.60;3.10;;;;;;;9.31;75.27;99637.44;105486;1254;73931;-22
2023/09/10 01:10:08;;;;;;;4.40;2.60;;;;;;;9.14;74.91;99638.55;105332;1254;74428;-23
2023/09/10 01:12:48;;;;;;;6.10;3.50;;;;;;;8.88;74.86;99641.29;105586;1254;72706;-23
2023/09/10 01:15:30;;;;;;;10.00;4.90;;;;;;;8.62;75.45;99642.05;105282;1257;61128;-22
2023/09/10 01:18:05;;;;;;;8.80;5.20;;;;;;;8.34;75.74;99640.49;105572;1255;61052;-23
2023/09/10 01:21:21;;;;;;;8.40;4.40;;;;;;;8.10;76.44;99643.18;105685;1254;73914;-23
2023/09/10 01:23:52;;;;;;;6.30;3.20;;;;;;;7.97;77.41;99641.02;105089;1260;74453;-23
2023/09/10 01:26:20;;;;;;;7.40;3.40;;;;;;;8.70;77.08;99642.25;105267;1254;71449;-23
2023/09/10 01:28:48;;;;;;;7.20;3.70;;;;;;;9.25;75.22;99635.91;105534;1254;61103;-23
2023/09/10 01:31:16;;;;;;;7.10;3.80;;;;;;;9.28;73.99;99637.27;105482;1260;61112;-23
2023/09/10 01:33:55;;;;;;;6.90;4.10;;;;;;;9.04;73.38;99641.10;105402;1254;73903;-23
2023/09/10 01:36:26;;;;;;;10.20;4.50;;;;;;;8.74;74.32;99647.20;105685;1262;73221;-24
2023/09/10 01:39:00;;;;;;;12.40;4.90;;;;;;;8.45;75.64;99651.44;105518;1260;71725;-22
2023/09/10 01:41:28;;;;;;;8.10;4.60;;;;;;;8.16;75.76;99653.02;105631;1262;61070;-23
2023/09/10 01:43:56;;;;;;;8.10;4.70;;;;;;;7.91;76.54;99648.67;105533;1254;61153;-23
2023/09/10 01:46:25;;;;;;;7.00;3.30;;;;;;;7.71;78.01;99648.27;105497;1259;72641;-23
2023/09/10 01:48:53;;;;;;;7.70;3.10;;;;;;;8.12;78.22;99649.27;105571;1260;72897;-23
2023/09/10 01:51:21;;;;;;;6.80;4.00;;;;;;;8.65;77.04;99643.07;105584;1259;72731;-23
2023/09/10 01:53:48;;;;;;;13.20;4.20;;;;;;;8.75;76.31;99638.09;105574;1254;61212;-23
2023/09/10 01:56:16;;;;;;;7.80;3.80;;;;;;;8.61;76.77;99642.96;105577;1259;61266;-23
2023/09/10 01:58:44;;;;;;;7.70;3.80;;;;;;;8.40;77.11;99640.29;105273;1254;73914;-23
2023/09/10 02:01:12;;;;;;;6.60;3.50;;;;;;;8.16;77.62;99639.01;105549;1259;74451;-23
2023/09/10 02:03:40;;;;;;;8.60;3.60;;;;;;;7.91;77.99;99633.94;105570;1259;72729;-23
2023/09/10 02:06:08;;;;;;;4.80;2.60;;;;;;;7.70;78.35;99635.39;105650;1259;61734;-23
2023/09/10 02:08:36;;;;;;;4.50;2.50;;;;;;;8.09;79.04;99636.70;105655;1253;61156;-23
2023/09/10 02:11:05;;;;;;;5.30;2.90;;;;;;;8.64;77.67;99636.06;105642;1254;73962;-24
2023/09/10 02:20:15;;;;;;;5.80;3.20;;;;;;;8.02;78.10;99634.73;102639;1293;600244;-21
2023/09/10 02:22:43;;;;;;;5.90;3.50;;;;;;;7.79;78.31;99635.35;104829;1267;61171;-24
2023/09/10 02:25:11;;;;;;;4.80;3.20;;;;;;;7.60;78.64;99633.38;104806;1272;61192;-22
2023/09/10 02:27:39;;;;;;;3.50;2.20;;;;;;;7.44;78.86;99634.32;105253;1261;72281;-24
2023/09/10 02:30:07;;;;;;;4.90;2.80;;;;;;;7.87;78.78;99631.95;105235;1260;74528;-24
2023/09/10 02:32:37;;;;;;;4.40;3.00;;;;;;;8.43;76.97;99630.39;105308;1260;71430;-24
2023/09/10 02:35:06;;;;;;;5.00;3.20;;;;;;;8.49;75.83;99627.48;103004;1265;61219;-24
2023/09/10 02:37:33;;;;;;;5.20;4.00;;;;;;;8.27;75.43;99628.81;105438;1257;61243;-22
2023/09/10 02:40:02;;;;;;;5.10;3.40;;;;;;;7.99;76.26;99628.66;105426;1263;71014;-21
2023/09/10 02:42:30;;;;;;;7.40;3.30;;;;;;;7.73;76.93;99630.52;105505;1262;73233;-22
2023/09/10 02:44:58;;;;;;;4.50;3.20;;;;;;;7.50;77.67;99623.79;105421;1262;72722;-21
2023/09/10 02:47:27;;;;;;;3.90;2.00;;;;;;;7.31;78.48;99624.23;105546;1263;61320;-22
2023/09/10 02:49:55;;;;;;;3.20;2.00;;;;;;;7.68;79.34;99622.85;105297;1257;61110;-21
2023/09/10 02:52:26;;;;;;;4.00;2.40;;;;;;;8.18;78.13;99620.35;105506;1257;73119;-21
2023/09/10 02:54:54;;;;;;;5.10;2.80;;;;;;;8.20;77.30;99620.77;105351;1257;74432;-23
2023/09/10 02:57:22;;;;;;;4.40;2.70;;;;;;;8.03;77.15;99621.63;105459;1263;72685;-23
2023/09/10 02:59:50;;;;;;;5.50;2.70;;;;;;;7.81;77.24;99619.20;105467;1257;61141;-22
2023/09/10 03:02:18;;;;;;;4.60;2.90;;;;;;;7.55;77.49;99618.14;105458;1257;61151;-23
2023/09/10 03:04:46;;;;;;;3.80;2.40;;;;;;;7.29;77.76;99617.77;105455;1257;73106;-23
2023/09/10 03:07:14;;;;;;;3.20;1.80;;;;;;;7.06;78.57;99615.45;105415;1257;74461;-22
2023/09/10 03:09:42;;;;;;;3.80;1.80;;;;;;;7.41;79.52;99619.11;105357;1263;72790;-22
2023/09/10 03:12:23;;;;;;;2.60;1.90;;;;;;;7.91;78.67;99621.02;105397;1257;61829;-23
2023/09/10 03:14:51;;;;;;;4.10;1.70;;;;;;;7.93;77.86;99622.59;105587;1257;61069;-22
2023/09/10 03:17:19;;;;;;;4.20;2.30;;;;;;;7.75;77.71;99618.65;105538;1257;73101;-23
2023/09/10 03:19:48;;;;;;;3.00;1.90;;;;;;;7.53;77.31;99624.27;105462;1263;74458;-23
2023/09/10 03:22:16;;;;;;;3.70;2.40;;;;;;;7.29;77.28;99624.34;105497;1260;72689;-23
2023/09/10 03:26:34;;;;;;;6.30;2.70;;;;;;;6.91;77.93;99625.11;102686;1292;600843;-23
2023/09/10 03:29:02;;;;;;;2.90;1.60;;;;;;;6.69;78.80;99627.67;104839;1267;61742;-23
2023/09/10 03:31:31;;;;;;;3.70;2.20;;;;;;;7.16;78.99;99628.89;104831;1270;61235;-23
2023/09/10 03:33:58;;;;;;;3.60;2.60;;;;;;;7.67;77.45;99629.34;104793;1273;72317;-24
2023/09/10 03:36:26;;;;;;;3.70;2.60;;;;;;;7.75;76.76;99627.14;104744;1276;75563;-23
2023/09/10 03:38:54;;;;;;;5.70;2.90;;;;;;;7.61;76.25;99628.66;104794;1270;71728;-24
2023/09/10 03:41:23;;;;;;;5.30;2.70;;;;;;;7.39;76.22;99633.42;102619;1264;3134972;-24
2023/09/10 03:43:50;;;;;;;3.40;2.40;;;;;;;7.18;76.56;99628.22;104934;1270;61129;-24
2023/09/10 03:46:18;;;;;;;5.70;3.20;;;;;;;6.99;77.25;99631.55;104925;1269;72263;-24
2023/09/10 03:48:46;;;;;;;4.00;2.00;;;;;;;6.81;78.60;99630.67;105029;1266;73320;-23
2023/09/10 03:51:15;;;;;;;5.50;2.10;;;;;;;7.18;79.16;99629.81;105158;1270;71431;-23
2023/09/10 03:53:44;;;;;;;2.80;2.20;;;;;;;7.72;77.75;99627.80;104886;1270;61106;-23
2023/09/10 03:56:12;;;;;;;3.30;2.30;;;;;;;7.80;77.22;99632.05;104878;1264;61155;-23
2023/09/10 03:58:40;;;;;;;3.20;1.90;;;;;;;7.63;77.60;99632.14;104886;1270;73232;-22
2023/09/10 04:01:09;;;;;;;3.40;2.30;;;;;;;7.47;77.87;99630.84;105100;1269;73195;-22
2023/09/10 04:03:36;;;;;;;4.50;2.50;;;;;;;7.34;77.90;99632.70;104884;1270;72725;-23
2023/09/10 04:06:04;;;;;;;5.50;2.50;;;;;;;7.19;77.21;99629.18;104833;1270;61104;-22
2023/09/10 04:08:32;;;;;;;3.60;2.40;;;;;;;7.02;77.64;99631.05;104849;1267;61166;-22
2023/09/10 04:11:00;;;;;;;2.70;1.50;;;;;;;6.94;78.70;99629.27;104836;1269;73065;-22
2023/09/10 04:13:28;;;;;;;4.20;1.80;;;;;;;7.58;78.87;99628.50;104953;1271;73289;-22
2023/09/10 04:15:55;;;;;;;5.90;2.00;;;;;;;8.40;77.18;99631.67;104813;1268;72705;-22
2023/09/10 04:18:23;;;;;;;4.50;2.30;;;;;;;8.80;74.99;99631.92;104844;1268;61171;-23
2023/09/10 04:20:51;;;;;;;5.20;2.50;;;;;;;8.91;74.08;99631.20;104946;1269;61102;-22
2023/09/10 04:23:19;;;;;;;3.80;2.30;;;;;;;8.92;73.54;99628.20;104806;1270;73122;-23
2023/09/10 04:26:07;;;;;;;5.10;2.80;;;;;;;8.87;73.89;99629.02;104802;1270;73306;-23
2023/09/10 04:28:35;;;;;;;20.30;3.20;;;;;;;8.84;73.75;99628.55;104679;1267;73030;-24
2023/09/10 04:31:03;;;;;;;3.90;2.50;;;;;;;8.77;74.02;99629.48;104511;1273;61071;-23
2023/09/10 04:33:31;;;;;;;2.90;1.50;;;;;;;8.73;74.65;99628.88;104497;1268;61116;-22
2023/09/10 04:36:01;;;;;;;4.10;2.20;;;;;;;9.33;74.98;99623.95;104550;1273;73120;-22
2023/09/10 04:38:29;;;;;;;6.40;3.00;;;;;;;10.07;73.49;99626.20;104762;1272;72718;-22
2023/09/10 04:40:57;;;;;;;6.50;2.80;;;;;;;10.31;72.96;99624.21;104717;1273;71758;-22
2023/09/10 04:43:24;;;;;;;3.50;2.30;;;;;;;10.30;72.44;99621.46;104637;1274;61187;-22
2023/09/10 04:45:52;;;;;;;4.10;2.80;;;;;;;10.24;72.56;99622.09;104654;1271;61179;-23
2023/09/10 04:48:20;;;;;;;4.00;2.90;;;;;;;10.20;72.67;99622.12;104751;1273;73555;-22
2023/09/10 04:50:49;;;;;;;10.10;2.90;;;;;;;10.22;72.79;99619.23;104814;1267;73252;-23
2023/09/10 04:53:17;;;;;;;5.60;2.70;;;;;;;10.33;73.32;99615.35;104727;1274;72777;-23
2023/09/10 04:55:51;;;;;;;5.50;3.20;;;;;;;10.52;73.08;99614.39;104733;1267;61048;-23
2023/09/10 04:58:19;;;;;;;4.30;2.20;;;;;;;10.76;73.03;99612.61;104664;1284;61125;-22
2023/09/10 05:00:48;;;;;;;5.70;2.20;;;;;;;11.60;72.24;99610.96;104752;1270;73758;-22
2023/09/10 05:03:16;;;;;;;5.10;2.70;;;;;;;12.57;69.75;99613.89;104495;1273;73428;-23
2023/09/10 05:05:44;;;;;;;4.20;3.20;;;;;;;13.07;67.70;99615.58;104642;1273;73150;-23
2023/09/10 05:08:12;;;;;;;8.70;3.30;;;;;;;13.29;66.66;99614.63;104704;1270;61196;-23
2023/09/10 05:10:47;;;;;;;10.50;2.70;;;;;;;13.42;66.07;99613.71;104833;1264;61004;-23
2023/09/10 05:13:15;;;;;;;4.60;3.10;;;;;;;13.49;64.83;99616.26;104932;1272;71851;-23
2023/09/10 05:15:47;;;;;;;5.90;3.00;;;;;;;13.56;64.86;99617.42;105230;1266;74451;-23
2023/09/10 05:18:15;;;;;;;9.00;2.60;;;;;;;13.67;64.09;99619.68;104925;1263;72509;-23
2023/09/10 05:20:43;;;;;;;6.40;3.20;;;;;;;13.74;64.55;99617.33;105247;1262;61174;-23
2023/09/10 05:23:11;;;;;;;6.50;3.00;;;;;;;13.85;64.35;99616.77;105134;1268;61183;-23
2023/09/10 05:25:39;;;;;;;5.90;3.00;;;;;;;13.89;64.23;99614.70;105158;1266;73087;-23
2023/09/10 05:28:07;;;;;;;6.00;3.30;;;;;;;14.01;63.90;99620.81;105117;1263;74405;-23
2023/09/10 05:30:37;;;;;;;5.80;3.30;;;;;;;14.13;63.66;99624.29;105837;1254;71437;-23
2023/09/10 05:33:05;;;;;;;6.40;3.30;;;;;;;14.21;63.39;99626.54;105668;1260;61173;-23
2023/09/10 05:35:33;;;;;;;7.50;3.30;;;;;;;14.31;63.09;99623.61;105550;1260;61173;-23
2023/09/10 05:38:02;;;;;;;5.70;3.00;;;;;;;14.41;62.36;99625.11;105463;1255;73085;-23
2023/09/10 05:40:36;;;;;;;5.30;3.00;;;;;;;14.49;61.76;99623.96;105651;1255;74502;-23
2023/09/10 05:43:05;;;;;;;6.60;3.20;;;;;;;14.55;61.95;99621.69;105584;1254;71503;-22
2023/09/10 05:45:34;;;;;;;5.20;3.00;;;;;;;14.59;61.61;99619.59;105713;1255;61113;-22
2023/09/10 05:48:03;;;;;;;5.70;3.20;;;;;;;14.55;62.03;99620.79;105552;1260;61172;-23
2023/09/10 05:50:31;;;;;;;7.00;3.40;;;;;;;14.53;61.77;99620.12;105700;1254;73570;-23
2023/09/10 05:52:59;;;;;;;5.80;3.30;;;;;;;14.44;61.54;99623.69;105582;1259;73266;-22
2023/09/10 05:55:27;;;;;;;6.30;3.30;;;;;;;14.36;62.05;99625.98;105662;1254;71915;-22
2023/09/10 05:57:57;;;;;;;6.90;3.70;;;;;;;14.30;62.25;99625.10;105549;1254;61208;-23
2023/09/10 06:00:24;;;;;;;7.80;3.60;;;;;;;14.26;62.37;99623.86;105555;1254;61115;-23
2023/09/10 06:02:52;;;;;;;8.30;3.90;;;;;;;14.22;62.33;99630.29;105507;1254;73057;-23
2023/09/10 06:05:20;;;;;;;6.90;4.00;;;;;;;14.22;61.91;99627.38;105595;1260;74475;-23
2023/09/10 06:07:48;;;;;;;10.00;3.60;;;;;;;14.20;61.89;99634.69;105475;1259;72690;-23
2023/09/10 06:10:16;;;;;;;7.30;3.70;;;;;;;14.19;61.81;99634.91;105588;1264;61135;-22
2023/09/10 06:12:44;;;;;;;10.00;3.10;;;;;;;14.19;61.58;99631.83;105664;1254;61243;-22
2023/09/10 06:15:12;;;;;;;6.10;3.60;;;;;;;14.17;61.45;99634.80;105404;1254;72135;-22
2023/09/10 06:17:40;;;;;;;5.70;3.60;;;;;;;14.20;61.46;99634.00;105619;1258;74418;-23
2023/09/10 06:20:09;;;;;;;9.70;3.60;;;;;;;14.21;60.78;99635.63;105645;1255;71922;-23
2023/09/10 06:22:37;;;;;;;6.70;2.80;;;;;;;14.26;60.74;99637.14;105661;1254;61154;-23
2023/09/10 06:25:06;;;;;;;9.40;3.80;;;;;;;14.28;60.03;99637.80;105763;1259;61103;-23
2023/09/10 06:27:34;;;;;;;11.50;3.50;;;;;;;14.31;59.98;99634.80;105569;1262;73086;-22
2023/09/10 06:30:03;;;;;;;5.40;3.00;;;;;;;14.34;60.06;99638.67;105673;1259;74403;-22
2023/09/10 06:32:30;;;;;;;5.20;2.60;;;;;;;14.40;60.05;99641.83;105713;1254;72681;-23
2023/09/10 06:34:59;;;;;;;4.00;2.00;;;;;;;14.49;60.22;99646.17;105699;1254;61173;-23
2023/09/10 06:37:27;;;;;;;6.10;2.80;;;;;;;14.58;59.96;99644.92;105534;1254;61138;-23
2023/09/10 06:39:55;;;;;;;6.50;2.10;;;;;;;14.69;59.53;99647.67;105511;1254;73059;-24
2023/09/10 06:42:23;;;;;;;3.80;2.10;;;;;;;14.81;59.75;99648.95;105549;1253;74563;-23
2023/09/10 06:45:01;;;;;;;5.50;2.30;;;;;;;14.95;59.27;99648.92;105623;1260;71563;-23
2023/09/10 06:47:28;;;;;;;6.40;2.20;;;;;;;15.09;58.53;99650.27;105656;1257;61148;-23
2023/09/10 06:49:56;;;;;;;4.40;2.10;;;;;;;15.22;57.91;99653.30;105678;1253;61227;-23
2023/09/10 06:52:24;;;;;;;5.10;1.80;;;;;;;15.31;57.75;99650.19;105696;1258;73512;-23
2023/09/10 06:54:52;;;;;;;4.60;2.30;;;;;;;15.39;56.73;99651.94;105510;1255;73227;-23
2023/09/10 06:57:23;;;;;;;5.70;2.30;;;;;;;15.54;56.08;99647.92;105537;1254;72651;-23
2023/09/10 06:59:51;;;;;;;4.40;2.20;;;;;;;15.65;55.78;99648.16;105554;1258;61132;-23
2023/09/10 07:02:20;;;;;;;4.40;2.00;;;;;;;15.77;55.68;99649.86;105565;1254;61068;-22
2023/09/10 07:04:48;;;;;;;5.20;2.00;;;;;;;15.98;55.61;99646.90;105530;1254;73096;-23
2023/09/10 07:07:16;;;;;;;3.20;2.00;;;;;;;16.27;55.54;99649.92;105485;1254;73261;-22
2023/09/10 07:09:44;;;;;;;4.70;1.70;;;;;;;16.57;55.17;99646.85;105467;1257;71328;-23
2023/09/10 07:12:11;;;;;;;3.60;2.20;;;;;;;16.89;54.39;99642.39;105564;1259;60985;-22
2023/09/10 07:14:39;;;;;;;5.10;2.10;;;;;;;17.19;53.19;99644.89;105703;1259;61198;-23
2023/09/10 07:17:07;;;;;;;2.60;1.60;;;;;;;17.48;52.42;99642.85;105681;1261;72048;-23
2023/09/10 07:19:36;;;;;;;3.90;1.60;;;;;;;17.76;51.56;99640.76;105653;1255;74477;-23
2023/09/10 07:22:04;;;;;;;3.40;2.00;;;;;;;18.06;51.11;99633.63;105687;1259;71505;-23
2023/09/10 07:24:31;;;;;;;4.00;1.50;;;;;;;18.32;49.60;99634.36;105839;1253;61224;-23
2023/09/10 07:27:01;;;;;;;3.10;1.70;;;;;;;18.57;49.17;99635.40;105665;1254;61089;-23
2023/09/10 07:29:29;;;;;;;5.30;1.60;;;;;;;18.79;48.23;99634.36;105588;1261;74832;-23
2023/09/10 07:31:57;;;;;;;4.60;1.40;;;;;;;18.90;46.81;99635.82;105612;1254;73258;-24
2023/09/10 07:34:25;;;;;;;4.00;1.50;;;;;;;18.75;45.19;99633.70;105670;1260;72841;-23
2023/09/10 07:36:54;;;;;;;3.20;1.50;;;;;;;18.82;46.80;99632.59;105850;1254;61163;-23
2023/09/10 07:39:22;;;;;;;2.10;1.50;;;;;;;18.98;46.82;99634.05;105627;1254;61093;-23
2023/09/10 07:41:50;;;;;;;3.20;1.40;;;;;;;19.01;46.80;99635.67;105608;1254;73893;-23
2023/09/10 07:44:17;;;;;;;3.20;1.60;;;;;;;19.10;47.24;99634.88;105672;1254;73458;-23
2023/09/10 07:46:49;;;;;;;4.20;1.50;;;;;;;19.16;45.65;99633.26;105581;1254;72739;-23
2023/09/10 07:49:17;;;;;;;5.70;1.60;;;;;;;19.05;46.05;99629.63;105505;1254;61118;-23
2023/09/10 07:51:44;;;;;;;3.00;1.50;;;;;;;19.01;46.32;99630.75;105676;1254;61094;-23
2023/09/10 07:54:12;;;;;;;4.90;1.70;;;;;;;19.16;45.85;99629.17;105652;1254;73947;-22
2023/09/10 07:56:40;;;;;;;4.50;2.20;;;;;;;19.37;44.97;99624.84;105634;1260;74441;-22
2023/09/10 07:59:11;;;;;;;3.40;1.80;;;;;;;19.56;43.83;99620.60;105629;1254;72714;-23
2023/09/10 08:01:39;;;;;;;7.40;2.10;;;;;;;19.72;43.92;99620.73;105678;1259;61176;-22
2023/09/10 08:04:07;;;;;;;3.40;1.60;;;;;;;19.95;44.58;99624.08;105512;1254;61159;-23
2023/09/10 08:06:35;;;;;;;4.30;2.10;;;;;;;20.14;43.89;99623.97;105687;1259;73890;-22
2023/09/10 08:09:03;;;;;;;2.30;1.20;;;;;;;20.31;42.31;99626.55;105658;1255;74941;-22
2023/09/10 08:11:35;;;;;;;4.20;1.40;;;;;;;20.52;41.66;99623.68;105737;1254;72708;-23
2023/09/10 08:17:23;;;;;;;2.50;1.20;;;;;;;20.94;41.00;99620.67;103565;1283;616285;-22
2023/09/10 08:19:50;;;;;;;2.90;1.30;;;;;;;21.15;40.44;99616.83;105231;1264;61045;-22
2023/09/10 08:22:17;;;;;;;3.70;1.30;;;;;;;21.25;39.85;99613.53;105213;1263;61186;-22
2023/09/10 08:24:46;;;;;;;4.80;1.20;;;;;;;21.35;39.35;99614.33;105199;1264;72208;-22
2023/09/10 08:27:13;;;;;;;1.60;1.00;;;;;;;21.48;38.41;99611.90;105216;1263;74483;-22
2023/09/10 08:29:40;;;;;;;1.60;0.80;;;;;;;21.39;37.59;99610.88;103106;1260;2916650;-23
2023/09/10 08:32:07;;;;;;;4.50;1.40;;;;;;;21.45;38.69;99607.17;105196;1261;61192;-22
2023/09/10 08:34:35;;;;;;;2.30;1.40;;;;;;;21.67;38.78;99606.30;105217;1261;61098;-22
2023/09/10 08:37:05;;;;;;;4.20;1.20;;;;;;;21.89;38.19;99604.75;105262;1265;72113;-22
2023/09/10 08:39:33;;;;;;;2.50;1.30;;;;;;;21.92;36.75;99605.71;105252;1261;74493;-22
2023/09/10 08:42:06;;;;;;;4.00;0.90;;;;;;;22.00;37.01;99607.95;105251;1261;72701;-22
2023/09/10 08:44:33;;;;;;;2.10;0.90;;;;;;;21.99;35.77;99611.23;105150;1264;61205;-22
2023/09/10 08:47:01;;;;;;;1.30;0.90;;;;;;;21.95;36.55;99611.02;105190;1261;61173;-22
2023/09/10 08:49:28;;;;;;;1.70;0.90;;;;;;;22.06;36.82;99609.92;105216;1261;73113;-22
2023/09/10 08:51:55;;;;;;;2.30;1.20;;;;;;;22.25;36.36;99604.70;105245;1260;74247;-22
2023/09/10 08:54:22;;;;;;;5.10;1.20;;;;;;;22.51;36.04;99604.08;105211;1266;72526;-22
2023/09/10 08:56:49;;;;;;;1.50;0.90;;;;;;;22.58;35.86;99603.08;105756;1253;61839;-22
2023/09/10 08:59:17;;;;;;;1.60;0.70;;;;;;;22.54;35.41;99598.56;105354;1263;61231;-22
2023/09/10 09:01:44;;;;;;;3.10;1.10;;;;;;;22.84;35.82;99600.65;105482;1254;72911;-22
2023/09/10 09:04:12;;;;;;;1.50;1.00;;;;;;;23.18;35.12;99600.50;105723;1257;74489;-22
2023/09/10 09:06:40;;;;;;;4.40;1.30;;;;;;;23.36;34.01;99596.59;105799;1254;71365;-22
2023/09/10 09:09:08;;;;;;;4.50;1.00;;;;;;;23.63;34.30;99593.98;105672;1257;61129;-22
2023/09/10 09:11:35;;;;;;;1.00;0.80;;;;;;;23.93;34.02;99594.84;105418;1255;61068;-23
2023/09/10 09:14:07;;;;;;;1.90;1.20;;;;;;;24.17;33.49;99592.81;105659;1254;72871;-23
2023/09/10 09:16:34;;;;;;;1.20;0.70;;;;;;;24.42;33.51;99594.03;105575;1258;74511;-22
2023/09/10 09:19:14;;;;;;;1.40;0.80;;;;;;;24.34;32.66;99592.87;105607;1263;72863;-22
2023/09/10 09:21:41;;;;;;;1.60;0.80;;;;;;;24.48;32.77;99591.91;105337;1256;61127;-23
2023/09/10 09:24:10;;;;;;;4.50;1.30;;;;;;;24.71;32.19;99590.22;105216;1263;61201;-23
2023/09/10 09:26:39;;;;;;;1.00;0.80;;;;;;;24.63;31.80;99592.83;105591;1263;71958;-23
2023/09/10 09:29:07;;;;;;;1.60;1.00;;;;;;;24.88;31.38;99593.21;105607;1257;74930;-23
2023/09/10 09:31:35;;;;;;;2.40;0.60;;;;;;;24.97;30.51;99590.67;105540;1256;72586;-22
2023/09/10 09:34:02;;;;;;;2.00;1.00;;;;;;;25.42;30.53;99582.55;105423;1257;61140;-24
2023/09/10 09:36:32;;;;;;;1.60;0.80;;;;;;;25.82;28.97;99583.00;105634;1260;61185;-25
2023/09/10 09:39:00;;;;;;;3.30;0.80;;;;;;;26.05;29.58;99579.60;105379;1258;71948;-24
2023/09/10 09:41:27;;;;;;;4.60;1.00;;;;;;;26.22;28.83;99577.52;105175;1257;74381;-23
2023/09/10 09:43:56;;;;;;;0.70;0.50;;;;;;;26.59;28.65;99575.48;105539;1257;72562;-24
2023/09/10 09:46:24;;;;;;;2.40;1.10;;;;;;;26.91;28.33;99573.83;105383;1258;60998;-22
2023/09/10 09:48:51;;;;;;;1.60;0.70;;;;;;;27.34;28.66;99574.55;105314;1256;61199;-23
2023/09/10 09:51:19;;;;;;;3.60;0.90;;;;;;;27.74;27.88;99572.54;105563;1257;73026;-23
2023/09/10 09:53:46;;;;;;;2.30;0.80;;;;;;;27.89;27.45;99573.00;105585;1257;74330;-23
2023/09/10 09:56:13;;;;;;;1.80;1.00;;;;;;;28.28;27.11;99571.98;105706;1251;72550;-23
2023/09/10 09:58:41;;;;;;;2.50;0.90;;;;;;;28.21;25.36;99574.98;105751;1251;61098;-23
2023/09/10 10:01:08;;;;;;;1.20;0.80;;;;;;;27.30;25.45;99570.69;105960;1255;61051;-23
2023/09/10 10:03:37;;;;;;;1.10;0.90;;;;;;;27.74;26.59;99570.77;105941;1257;73074;-23
2023/09/10 10:06:04;;;;;;;2.80;1.10;;;;;;;27.89;25.80;99566.57;105905;1251;74452;-23
2023/09/10 10:08:32;;;;;;;2.00;1.10;;;;;;;28.15;26.33;99562.55;105927;1251;72534;-23
2023/09/10 10:11:00;;;;;;;4.10;1.00;;;;;;;28.22;25.53;99559.05;105701;1259;61151;-23
2023/09/10 10:13:27;;;;;;;7.00;0.90;;;;;;;28.42;26.07;99554.83;106018;1255;61058;-23
2023/09/10 10:15:55;;;;;;;5.00;1.10;;;;;;;28.52;25.60;99553.55;105946;1251;73085;-24
2023/09/10 10:18:23;;;;;;;1.70;0.90;;;;;;;28.90;25.76;99557.55;105789;1251;74407;-23
2023/09/10 10:20:55;;;;;;;;;;;;;;;29.08;24.35;99554.25;105688;1254;73245;-23
2023/09/10 10:23:22;;;;;;;6.20;1.10;;;;;;;29.01;24.84;99554.42;105980;1251;61048;-23
2023/09/10 10:26:06;;;;;;;3.10;0.80;;;;;;;29.21;24.57;99551.66;105655;1251;61717;-23
2023/09/10 10:28:35;;;;;;;1.40;0.90;;;;;;;27.50;25.35;99552.24;105676;1251;73062;-24
2023/09/10 10:31:12;;;;;;;2.90;0.70;;;;;;;27.17;25.65;99551.02;105604;1251;72149;-24
2023/09/10 10:33:51;;;;;;;2.10;0.90;;;;;;;26.90;26.56;99546.95;105620;1254;72829;-24
2023/09/10 10:36:46;;;;;;;0.90;0.80;;;;;;;26.97;26.34;99544.17;105668;1254;61147;-23
2023/09/10 10:39:13;;;;;;;2.80;0.70;;;;;;;26.87;27.31;99542.58;105713;1253;61474;-24
2023/09/10 10:41:43;;;;;;;5.70;1.00;;;;;;;26.86;26.29;99538.02;105926;1251;71962;-24
2023/09/10 10:44:24;;;;;;;2.70;0.80;;;;;;;27.02;26.32;99530.96;105666;1251;74344;-24
2023/09/10 10:46:59;;;;;;;3.00;1.10;;;;;;;26.84;26.60;99525.92;105855;1251;72525;-23
2023/09/10 10:49:27;;;;;;;2.60;1.00;;;;;;;27.28;27.32;99523.86;105934;1251;61052;-24
2023/09/10 10:51:54;;;;;;;4.20;1.10;;;;;;;28.05;25.59;99520.20;105581;1257;61170;-23
2023/09/10 10:54:23;;;;;;;2.20;1.00;;;;;;;28.55;24.67;99520.25;105715;1251;73118;-24
2023/09/10 10:56:50;;;;;;;2.30;0.70;;;;;;;28.69;23.61;99515.41;105720;1260;74391;-24
2023/09/10 10:59:18;;;;;;;2.00;1.20;;;;;;;28.76;24.29;99519.63;105875;1251;72499;-23
2023/09/10 11:02:23;;;;;;;2.90;1.10;;;;;;;29.18;24.14;99514.55;105933;1251;61067;-24
2023/09/10 11:05:01;;;;;;;1.80;1.00;;;;;;;29.45;23.45;99515.44;106009;1256;61124;-24
2023/09/10 11:07:30;;;;;;;3.10;1.00;;;;;;;29.62;23.26;99511.98;105786;1254;72929;-24
2023/09/10 11:10:27;;;;;;;1.30;0.80;;;;;;;29.78;23.09;99514.45;105773;1259;74560;-23
2023/09/10 11:13:10;;;;;;;1.60;0.70;;;;;;;29.70;21.82;99509.09;105848;1254;73173;-24
2023/09/10 11:16:06;;;;;;;2.60;0.80;;;;;;;29.34;22.92;99506.48;105687;1254;61176;-24
2023/09/10 11:18:37;;;;;;;2.80;1.00;;;;;;;28.97;23.39;99508.75;105903;1251;61150;-24
2023/09/10 11:21:15;;;;;;;1.90;1.00;;;;;;;28.36;23.51;99504.17;105638;1251;73072;-24
2023/09/10 11:23:54;;;;;;;2.40;0.80;;;;;;;28.34;24.61;99507.02;105474;1251;74533;-23
2023/09/10 11:26:21;;;;;;;2.30;1.20;;;;;;;28.56;24.76;99502.44;105751;1251;72991;-24
2023/09/10 11:28:52;;;;;;;1.40;0.80;;;;;;;28.19;25.03;99502.60;105683;1256;61192;-24
2023/09/10 11:31:36;;;;;;;5.90;0.90;;;;;;;28.45;24.89;99500.32;105817;1252;61122;-24
2023/09/10 11:34:23;;;;;;;2.40;0.80;;;;;;;28.71;24.41;99494.25;105820;1254;72954;-23
2023/09/10 11:36:54;;;;;;;2.80;0.90;;;;;;;28.55;24.87;99495.61;105970;1251;74402;-24
2023/09/10 11:39:21;;;;;;;1.10;0.80;;;;;;;28.55;25.05;99493.35;105948;1251;71462;-24
2023/09/10 11:41:50;;;;;;;3.80;0.90;;;;;;;28.33;24.93;99490.60;105786;1251;61011;-24
2023/09/10 11:44:17;;;;;;;1.90;0.80;;;;;;;28.29;24.02;99490.61;105796;1251;61024;-23
2023/09/10 11:46:44;;;;;;;2.60;0.80;;;;;;;28.18;24.46;99491.30;105992;1251;73076;-23
2023/09/10 11:49:14;;;;;;;2.00;0.70;;;;;;;27.69;24.87;99486.54;105707;1251;74488;-23
2023/09/10 11:51:49;;;;;;;3.40;0.70;;;;;;;26.88;26.06;99484.75;105780;1254;72378;-23